createdAt,value
2018-03-31T00:01:54.848Z,96.80
2018-03-31T00:04:22.267Z,96.80
2018-03-31T00:06:50.020Z,97.00
2018-03-31T00:09:17.025Z,97.00
2018-03-31T00:11:44.033Z,97.00
2018-03-31T00:14:11.032Z,97.00
2018-03-31T00:16:38.796Z,96.70
2018-03-31T00:19:05.828Z,96.70
2018-03-31T00:21:32.881Z,96.70
2018-03-31T00:24:00.659Z,96.60
2018-03-31T00:26:27.667Z,96.60
2018-03-31T00:28:54.637Z,96.70
2018-03-31T00:31:21.619Z,96.50
2018-03-31T00:33:49.370Z,96.70
2018-03-31T00:36:16.412Z,96.70
2018-03-31T00:38:43.447Z,96.70
2018-03-31T00:41:10.472Z,96.70
2018-03-31T00:43:37.489Z,96.70
2018-03-31T00:46:05.211Z,96.70
2018-03-31T00:48:32.241Z,96.70
2018-03-31T00:50:59.167Z,96.70
2018-03-31T00:53:26.156Z,96.60
2018-03-31T00:55:53.148Z,96.20
2018-03-31T00:58:20.189Z,94.80
2018-03-31T01:00:47.147Z,94.10
2018-03-31T01:03:14.217Z,95.80
2018-03-31T01:05:41.187Z,93.30
2018-03-31T01:08:08.226Z,94.30
2018-03-31T01:10:35.246Z,95.70
2018-03-31T01:13:02.238Z,95.40
2018-03-31T01:15:29.184Z,96.00
2018-03-31T01:17:56.167Z,93.50
2018-03-31T01:20:23.188Z,95.40
2018-03-31T01:22:50.227Z,90.90
2018-03-31T01:25:17.268Z,92.60
2018-03-31T01:27:44.290Z,93.50
2018-03-31T01:30:11.334Z,95.20
2018-03-31T01:32:38.329Z,95.30
2018-03-31T01:35:06.100Z,94.80
2018-03-31T01:37:33.096Z,94.80
2018-03-31T01:40:00.090Z,94.30
2018-03-31T01:42:27.219Z,93.80
2018-03-31T01:44:54.990Z,96.30
2018-03-31T01:47:22.005Z,96.30
2018-03-31T01:49:48.985Z,97.10
2018-03-31T01:52:15.950Z,97.30
2018-03-31T01:54:43.717Z,93.70
2018-03-31T01:57:10.741Z,93.60
2018-03-31T01:59:37.774Z,95.90
2018-03-31T02:02:04.753Z,96.90
2018-03-31T02:04:31.778Z,96.60
2018-03-31T02:06:59.578Z,96.50
2018-03-31T02:09:26.625Z,96.50
2018-03-31T02:11:53.717Z,97.90
2018-03-31T02:14:21.130Z,98.20
2018-03-31T02:16:48.150Z,98.20
2018-03-31T02:19:15.169Z,98.30
2018-03-31T02:21:42.243Z,98.30
2018-03-31T02:24:09.279Z,98.70
2018-03-31T02:26:36.324Z,98.80
2018-03-31T02:29:03.360Z,98.90
2018-03-31T02:31:30.346Z,99.30
2018-03-31T02:33:57.405Z,99.20
2018-03-31T02:36:24.435Z,98.20
2018-03-31T02:38:51.558Z,98.40
2018-03-31T02:41:18.572Z,99.10
2018-03-31T02:43:45.563Z,99.50
2018-03-31T02:46:12.552Z,99.90
2018-03-31T02:48:39.596Z,99.90
2018-03-31T02:51:06.604Z,99.90
2018-03-31T02:53:34.353Z,99.90
2018-03-31T02:56:01.400Z,99.90
2018-03-31T02:58:28.391Z,99.90
2018-03-31T03:00:55.421Z,99.90
2018-03-31T03:03:22.410Z,99.90
2018-03-31T03:05:49.430Z,99.90
2018-03-31T03:08:16.374Z,99.90
2018-03-31T03:10:43.383Z,99.90
2018-03-31T03:13:10.350Z,99.90
2018-03-31T03:15:37.394Z,99.90
2018-03-31T03:18:04.370Z,99.90
2018-03-31T03:20:31.368Z,99.90
2018-03-31T03:22:58.389Z,99.70
2018-03-31T03:25:25.350Z,99.70
2018-03-31T03:27:52.364Z,99.70
2018-03-31T03:30:19.391Z,99.60
2018-03-31T03:32:46.350Z,99.50
2018-03-31T03:35:13.350Z,99.50
2018-03-31T03:37:40.330Z,99.40
2018-03-31T03:40:07.330Z,99.30
2018-03-31T03:42:34.303Z,99.30
2018-03-31T03:45:01.310Z,99.30
2018-03-31T03:47:28.338Z,99.30
2018-03-31T03:49:55.350Z,99.20
2018-03-31T03:52:22.378Z,99.10
2018-03-31T03:54:49.351Z,99.30
2018-03-31T03:57:16.334Z,99.00
2018-03-31T03:59:43.350Z,98.80
2018-03-31T04:02:10.407Z,98.70
2018-03-31T04:04:37.390Z,98.80
2018-03-31T04:07:04.411Z,98.80
2018-03-31T04:09:31.505Z,99.00
2018-03-31T04:11:58.562Z,99.10
2018-03-31T04:14:25.567Z,99.00
2018-03-31T04:16:52.597Z,98.90
2018-03-31T04:19:19.607Z,98.90
2018-03-31T04:21:46.581Z,98.80
2018-03-31T04:24:13.549Z,98.90
2018-03-31T04:26:40.575Z,98.90
2018-03-31T04:29:07.570Z,99.00
2018-03-31T04:31:34.631Z,99.20
2018-03-31T04:34:01.618Z,99.50
2018-03-31T04:36:28.679Z,99.10
2018-03-31T04:38:55.775Z,98.90
2018-03-31T04:41:22.822Z,98.60
2018-03-31T04:43:49.788Z,98.40
2018-03-31T04:46:16.870Z,98.30
2018-03-31T04:48:43.918Z,98.30
2018-03-31T04:51:10.988Z,98.20
2018-03-31T04:53:38.049Z,98.00
2018-03-31T04:56:05.042Z,97.90
2018-03-31T04:58:32.035Z,97.70
2018-03-31T05:00:59.058Z,97.70
2018-03-31T05:03:26.832Z,97.70
2018-03-31T05:05:53.888Z,97.90
2018-03-31T05:08:20.938Z,97.60
2018-03-31T05:10:48.113Z,97.40
2018-03-31T05:13:17.163Z,97.50
2018-03-31T05:15:44.195Z,97.90
2018-03-31T05:18:11.207Z,98.10
2018-03-31T05:20:38.249Z,98.20
2018-03-31T05:23:05.232Z,98.00
2018-03-31T05:25:32.186Z,97.70
2018-03-31T05:27:59.255Z,97.60
2018-03-31T05:30:26.233Z,97.50
2018-03-31T05:32:53.216Z,97.70
2018-03-31T05:35:20.212Z,97.70
2018-03-31T05:37:47.478Z,97.70
2018-03-31T05:40:14.927Z,97.50
2018-03-31T05:42:41.972Z,97.10
2018-03-31T05:45:09.028Z,97.10
2018-03-31T05:47:36.008Z,96.80
2018-03-31T05:50:07.733Z,95.80
2018-03-31T05:52:34.716Z,95.10
2018-03-31T05:55:02.460Z,94.30
2018-03-31T05:57:29.442Z,94.30
2018-03-31T05:59:56.386Z,93.90
2018-03-31T06:02:23.390Z,94.30
2018-03-31T06:04:50.435Z,93.90
2018-03-31T06:07:17.361Z,93.90
2018-03-31T06:09:44.468Z,94.00
2018-03-31T06:12:11.465Z,93.10
2018-03-31T06:14:38.427Z,93.30
2018-03-31T06:17:05.451Z,93.20
2018-03-31T06:19:32.571Z,91.90
2018-03-31T06:21:59.542Z,91.80
2018-03-31T06:24:26.926Z,91.90
2018-03-31T06:26:53.912Z,91.80
2018-03-31T06:29:20.857Z,92.40
2018-03-31T06:31:47.814Z,92.60
2018-03-31T06:34:14.789Z,92.70
2018-03-31T06:36:41.754Z,92.80
2018-03-31T06:39:08.812Z,92.80
2018-03-31T06:41:36.536Z,92.90
2018-03-31T06:44:03.516Z,93.00
2018-03-31T06:46:30.605Z,93.10
2018-03-31T06:48:57.613Z,93.10
2018-03-31T06:51:25.429Z,93.70
2018-03-31T06:53:53.106Z,93.30
2018-03-31T06:56:20.325Z,93.00
2018-03-31T06:58:47.785Z,93.80
2018-03-31T07:01:14.853Z,94.10
2018-03-31T07:03:42.373Z,94.20
2018-03-31T07:06:09.494Z,94.40
2018-03-31T07:08:36.754Z,94.40
2018-03-31T07:11:04.615Z,94.80
2018-03-31T07:13:31.814Z,94.70
2018-03-31T07:15:59.014Z,94.70
2018-03-31T07:18:26.194Z,94.50
2018-03-31T07:20:53.553Z,94.30
2018-03-31T07:23:20.613Z,94.10
2018-03-31T07:25:48.461Z,94.00
2018-03-31T07:28:19.201Z,94.20
2018-03-31T07:30:55.502Z,94.20
2018-03-31T07:33:29.106Z,93.90
2018-03-31T07:36:02.561Z,93.20
2018-03-31T07:38:30.868Z,93.00
2018-03-31T07:41:01.870Z,93.00
2018-03-31T07:43:30.141Z,92.30
2018-03-31T07:45:57.988Z,90.70
2018-03-31T07:48:25.549Z,90.70
2018-03-31T07:50:52.689Z,91.10
2018-03-31T07:53:20.956Z,91.20
2018-03-31T07:55:50.196Z,91.10
2018-03-31T07:58:20.574Z,90.50
2018-03-31T08:00:53.120Z,90.00
2018-03-31T08:03:20.255Z,90.20
2018-03-31T08:05:55.702Z,87.30
2018-03-31T08:08:22.660Z,87.30
2018-03-31T08:10:52.215Z,88.30
2018-03-31T08:13:19.348Z,88.20
2018-03-31T08:15:47.478Z,87.40
2018-03-31T08:18:14.555Z,87.40
2018-03-31T08:20:50.102Z,85.40
2018-03-31T08:23:28.845Z,86.40
2018-03-31T08:25:56.053Z,86.30
2018-03-31T08:28:24.657Z,85.70
2018-03-31T08:30:51.688Z,85.70
2018-03-31T08:35:51.003Z,84.10
2018-03-31T08:38:20.957Z,84.80
2018-03-31T08:41:00.144Z,84.70
2018-03-31T08:46:08.041Z,87.10
2018-03-31T08:48:43.407Z,87.10
2018-03-31T08:51:14.076Z,86.80
2018-03-31T08:53:50.244Z,87.40
2018-03-31T08:56:18.235Z,87.60
2018-03-31T08:58:46.154Z,84.70
2018-03-31T09:01:13.644Z,84.60
2018-03-31T09:03:40.692Z,85.30
2018-03-31T09:06:07.785Z,82.00
2018-03-31T09:08:34.732Z,82.90
2018-03-31T09:11:01.710Z,81.40
2018-03-31T09:13:28.719Z,80.40
2018-03-31T09:15:55.697Z,81.50
2018-03-31T09:18:22.732Z,82.20
2018-03-31T09:20:50.513Z,83.00
2018-03-31T09:23:17.540Z,83.10
2018-03-31T09:25:44.546Z,83.80
2018-03-31T09:28:12.317Z,84.60
2018-03-31T09:30:39.256Z,84.10
2018-03-31T09:33:06.226Z,85.10
2018-03-31T09:35:33.250Z,85.60
2018-03-31T09:38:00.351Z,85.70
2018-03-31T09:40:28.534Z,85.50
2018-03-31T09:42:55.926Z,85.40
2018-03-31T09:45:22.987Z,85.80
2018-03-31T09:47:50.186Z,85.70
2018-03-31T09:50:17.270Z,85.30
2018-03-31T09:52:44.467Z,84.50
2018-03-31T09:55:11.708Z,85.40
2018-03-31T09:57:39.067Z,85.00
2018-03-31T10:00:06.287Z,84.60
2018-03-31T10:02:33.367Z,84.40
2018-03-31T10:05:00.448Z,83.10
2018-03-31T10:07:28.447Z,81.20
2018-03-31T10:09:55.486Z,82.20
2018-03-31T10:12:22.687Z,83.20
2018-03-31T10:14:50.847Z,83.30
2018-03-31T10:17:17.907Z,83.30
2018-03-31T10:19:45.286Z,83.60
2018-03-31T10:22:12.389Z,79.90
2018-03-31T10:24:39.948Z,85.70
2018-03-31T10:27:07.087Z,86.60
2018-03-31T10:29:34.207Z,86.80
2018-03-31T10:32:01.626Z,87.40
2018-03-31T10:34:28.726Z,86.30
2018-03-31T10:36:55.867Z,85.30
2018-03-31T10:39:23.488Z,85.10
2018-03-31T10:41:50.608Z,85.10
2018-03-31T10:44:17.770Z,83.90
2018-03-31T10:46:45.707Z,84.10
2018-03-31T10:49:12.828Z,84.00
2018-03-31T10:51:39.997Z,83.90
2018-03-31T10:54:07.227Z,83.80
2018-03-31T10:56:34.427Z,84.10
2018-03-31T10:59:01.627Z,84.80
2018-03-31T11:01:29.706Z,84.60
2018-03-31T11:03:57.906Z,83.70
2018-03-31T11:06:25.888Z,83.80
2018-03-31T11:08:53.086Z,83.80
2018-03-31T11:11:20.607Z,83.70
2018-03-31T11:13:47.688Z,82.50
2018-03-31T11:16:14.691Z,82.20
2018-03-31T11:18:41.900Z,81.60
2018-03-31T11:21:09.104Z,81.90
2018-03-31T11:23:36.207Z,82.00
2018-03-31T11:26:03.927Z,82.50
2018-03-31T11:28:31.867Z,83.40
2018-03-31T11:30:59.167Z,83.50
2018-03-31T11:33:26.253Z,83.00
2018-03-31T11:35:53.246Z,82.50
2018-03-31T11:38:20.646Z,83.40
2018-03-31T11:40:48.288Z,82.60
2018-03-31T11:43:15.488Z,82.20
2018-03-31T11:45:42.526Z,82.60
2018-03-31T11:48:09.626Z,82.80
2018-03-31T11:50:36.706Z,83.80
2018-03-31T11:57:53.246Z,74.60
2018-03-31T12:05:18.067Z,48.90
2018-03-31T12:07:46.167Z,56.70
2018-03-31T12:10:13.667Z,56.60
2018-03-31T12:12:41.006Z,64.20
2018-03-31T12:15:08.248Z,70.10
2018-03-31T12:17:35.556Z,73.60
2018-03-31T12:20:02.786Z,75.80
2018-03-31T12:22:30.047Z,77.80
2018-03-31T12:24:57.267Z,79.90
2018-03-31T12:27:24.546Z,81.20
2018-03-31T12:29:51.926Z,82.00
2018-03-31T12:32:20.027Z,82.80
2018-03-31T12:34:47.395Z,82.70
2018-03-31T12:37:14.686Z,83.40
2018-03-31T12:39:41.989Z,84.20
2018-03-31T12:42:09.206Z,84.00
2018-03-31T12:44:36.547Z,84.60
2018-03-31T12:47:03.766Z,85.30
2018-03-31T12:49:31.127Z,85.10
2018-03-31T12:51:58.428Z,85.00
2018-03-31T12:54:25.634Z,85.00
2018-03-31T12:56:52.867Z,85.00
2018-03-31T12:59:20.528Z,86.10
2018-03-31T13:01:47.870Z,87.40
2018-03-31T13:04:15.327Z,87.20
2018-03-31T13:06:42.568Z,87.60
2018-03-31T13:09:09.827Z,88.70
2018-03-31T13:11:37.435Z,88.40
2018-03-31T13:14:04.846Z,89.30
2018-03-31T13:16:32.086Z,90.30
2018-03-31T13:19:00.334Z,88.40
2018-03-31T13:21:28.006Z,88.40
2018-03-31T13:23:56.126Z,87.70
2018-03-31T13:26:23.458Z,87.70
2018-03-31T13:28:50.807Z,87.20
2018-03-31T13:31:18.267Z,86.20
2018-03-31T13:33:45.608Z,85.90
2018-03-31T13:36:13.008Z,85.30
2018-03-31T13:38:40.827Z,84.90
2018-03-31T13:41:08.427Z,84.10
2018-03-31T13:43:37.588Z,84.10
2018-03-31T13:46:05.050Z,84.00
2018-03-31T13:48:32.368Z,83.20
2018-03-31T13:50:59.587Z,83.80
2018-03-31T13:53:26.768Z,82.50
2018-03-31T13:55:54.088Z,83.00
2018-03-31T13:58:21.987Z,83.90
2018-03-31T14:00:49.568Z,82.10
2018-03-31T14:03:17.029Z,82.00
2018-03-31T14:05:44.315Z,82.10
2018-03-31T14:08:12.436Z,81.90
2018-03-31T14:10:39.968Z,81.60
2018-03-31T14:13:07.348Z,82.50
2018-03-31T14:15:34.936Z,83.50
2018-03-31T14:18:02.211Z,84.30
2018-03-31T14:20:30.079Z,84.40
2018-03-31T14:22:57.331Z,84.90
2018-03-31T14:25:24.632Z,84.70
2018-03-31T14:27:51.970Z,83.90
2018-03-31T14:30:19.410Z,84.80
2018-03-31T14:32:46.953Z,84.20
2018-03-31T14:35:14.291Z,85.60
2018-03-31T14:37:41.721Z,85.20
2018-03-31T14:40:09.191Z,86.40
2018-03-31T14:42:36.451Z,85.90
2018-03-31T14:45:03.614Z,87.10
2018-03-31T14:47:31.032Z,87.10
2018-03-31T14:49:58.752Z,88.00
2018-03-31T14:52:25.973Z,87.80
2018-03-31T14:54:53.412Z,88.20
2018-03-31T14:57:20.653Z,88.80
2018-03-31T14:59:48.031Z,89.10
2018-03-31T15:02:15.607Z,88.30
2018-03-31T15:04:43.749Z,89.00
2018-03-31T15:07:11.452Z,89.00
2018-03-31T15:09:38.746Z,89.30
2018-03-31T15:12:06.155Z,87.60
2018-03-31T15:14:33.771Z,90.10
2018-03-31T15:17:01.410Z,90.10
2018-03-31T15:19:28.708Z,90.20
2018-03-31T15:21:56.089Z,90.20
2018-03-31T15:24:23.389Z,90.20
2018-03-31T15:26:50.607Z,90.70
2018-03-31T15:29:17.828Z,91.30
2018-03-31T15:31:45.169Z,91.20
2018-03-31T15:34:12.549Z,91.20
2018-03-31T15:36:39.968Z,91.30
2018-03-31T15:39:07.387Z,91.20
2018-03-31T15:41:34.611Z,91.50
2018-03-31T15:44:01.860Z,91.60
2018-03-31T15:46:29.338Z,91.50
2018-03-31T15:48:56.598Z,91.70
2018-03-31T15:51:23.757Z,91.90
2018-03-31T15:53:51.917Z,92.30
2018-03-31T15:56:19.257Z,92.20
2018-03-31T15:58:46.511Z,92.60
2018-03-31T16:01:13.830Z,92.90
2018-03-31T16:03:41.099Z,93.10
2018-03-31T16:06:08.310Z,93.30
2018-03-31T16:08:35.558Z,93.70
2018-03-31T16:11:02.794Z,93.90
2018-03-31T16:13:30.018Z,93.90
2018-03-31T16:15:57.411Z,93.80
2018-03-31T16:18:24.692Z,93.80
2018-03-31T16:20:51.951Z,93.90
2018-03-31T16:23:19.959Z,93.90
2018-03-31T16:25:47.258Z,93.90
2018-03-31T16:28:14.517Z,93.90
2018-03-31T16:30:41.866Z,94.10
2018-03-31T16:33:09.229Z,94.20
2018-03-31T16:35:36.510Z,94.40
2018-03-31T16:38:03.792Z,94.40
2018-03-31T16:40:31.110Z,94.50
2018-03-31T16:42:58.411Z,94.50
2018-03-31T16:45:25.658Z,94.80
2018-03-31T16:47:52.842Z,95.50
2018-03-31T16:50:20.051Z,95.70
2018-03-31T16:52:47.451Z,95.90
2018-03-31T16:55:14.687Z,96.10
2018-03-31T16:57:41.960Z,96.20
2018-03-31T17:00:11.127Z,96.50
2018-03-31T17:02:39.604Z,96.50
2018-03-31T17:05:07.197Z,96.60
2018-03-31T17:07:34.394Z,96.80
2018-03-31T17:10:01.829Z,96.90
2018-03-31T17:12:29.771Z,97.00
2018-03-31T17:14:57.354Z,96.90
2018-03-31T17:17:25.421Z,96.90
2018-03-31T17:19:53.271Z,96.80
2018-03-31T17:22:21.409Z,97.20
2018-03-31T17:24:48.648Z,96.90
2018-03-31T17:27:15.909Z,97.00
2018-03-31T17:29:43.110Z,97.10
2018-03-31T17:32:10.422Z,97.20
2018-03-31T17:34:37.689Z,97.30
2018-03-31T17:37:04.990Z,97.40
2018-03-31T17:39:32.207Z,97.50
2018-03-31T17:42:01.174Z,97.70
2018-03-31T17:44:28.451Z,97.70
2018-03-31T17:46:55.604Z,97.70
2018-03-31T17:49:22.849Z,97.90
2018-03-31T17:51:50.132Z,97.80
2018-03-31T17:54:17.332Z,97.80
2018-03-31T17:56:44.533Z,97.70
2018-03-31T17:59:11.927Z,97.70
2018-03-31T18:01:39.150Z,97.70
2018-03-31T18:04:06.412Z,98.00
2018-03-31T18:06:33.809Z,97.60
2018-03-31T18:09:00.962Z,97.20
2018-03-31T18:11:28.626Z,97.10
2018-03-31T18:13:55.887Z,97.10
2018-03-31T18:16:23.129Z,96.80
2018-03-31T18:18:50.291Z,96.80
2018-03-31T18:21:17.569Z,96.90
2018-03-31T18:23:45.115Z,97.00
2018-03-31T18:26:12.348Z,96.90
2018-03-31T18:28:39.550Z,96.90
2018-03-31T18:31:06.739Z,96.80
2018-03-31T18:33:34.091Z,96.90
2018-03-31T18:36:02.126Z,96.80
2018-03-31T18:38:29.314Z,96.80
2018-03-31T18:40:56.730Z,96.80
2018-03-31T18:43:24.148Z,96.80
2018-03-31T18:45:51.608Z,97.00
2018-03-31T18:48:18.827Z,97.00
2018-03-31T18:50:46.308Z,96.70
2018-03-31T18:53:13.628Z,96.80
2018-03-31T18:55:41.006Z,97.00
2018-03-31T18:58:08.287Z,97.20
2018-03-31T19:00:35.632Z,97.10
2018-03-31T19:03:02.906Z,95.80
2018-03-31T19:05:30.250Z,96.70
2018-03-31T19:07:57.571Z,96.90
2018-03-31T19:10:25.159Z,97.00
2018-03-31T19:12:52.572Z,97.10
2018-03-31T19:15:19.867Z,97.20
2018-03-31T19:17:47.207Z,97.40
2018-03-31T19:20:17.592Z,97.50
2018-03-31T19:22:44.808Z,97.70
2018-03-31T19:25:17.687Z,97.90
2018-03-31T19:27:44.967Z,98.10
2018-03-31T19:30:13.087Z,98.10
2018-03-31T19:32:42.135Z,98.20
2018-03-31T19:35:09.686Z,98.30
2018-03-31T19:37:37.026Z,98.10
2018-03-31T19:40:04.447Z,98.20
2018-03-31T19:42:33.764Z,98.10
2018-03-31T19:45:01.308Z,98.10
2018-03-31T19:47:28.646Z,98.10
2018-03-31T19:49:56.007Z,98.10
2018-03-31T19:52:23.408Z,98.20
2018-03-31T19:54:50.806Z,98.40
2018-03-31T19:57:18.108Z,98.50
2018-03-31T19:59:45.388Z,98.50
2018-03-31T20:02:12.669Z,98.30
2018-03-31T20:04:39.906Z,98.30
2018-03-31T20:07:07.267Z,98.20
2018-03-31T20:09:34.695Z,98.10
2018-03-31T20:12:01.987Z,98.00
2018-03-31T20:14:29.326Z,97.90
2018-03-31T20:16:56.927Z,97.90
2018-03-31T20:19:24.227Z,97.90
2018-03-31T20:21:51.568Z,97.70
2018-03-31T20:24:20.669Z,97.60
2018-03-31T20:26:48.608Z,97.60
2018-03-31T20:29:15.926Z,97.70
2018-03-31T20:34:15.306Z,97.90
2018-03-31T20:36:42.627Z,97.80
2018-03-31T20:39:10.008Z,97.80
2018-03-31T20:41:37.327Z,97.70
2018-03-31T20:44:04.567Z,97.70
2018-03-31T20:46:32.927Z,97.80
2018-03-31T20:49:00.547Z,97.80
2018-03-31T20:51:27.973Z,97.80
2018-03-31T20:53:55.278Z,97.60
2018-03-31T20:56:22.589Z,96.10
2018-03-31T20:58:49.907Z,94.60
2018-03-31T21:01:17.208Z,92.40
2018-03-31T21:03:44.627Z,91.30
2018-03-31T21:06:11.929Z,91.10
2018-03-31T21:08:39.331Z,90.50
2018-03-31T21:11:06.792Z,90.30
2018-03-31T21:13:34.148Z,90.00
2018-03-31T21:16:01.447Z,89.70
2018-03-31T21:18:28.768Z,89.50
2018-03-31T21:20:56.087Z,90.10
2018-03-31T21:23:23.809Z,90.40
2018-03-31T21:25:51.369Z,90.50
2018-03-31T21:28:18.749Z,90.40
2018-03-31T21:30:47.007Z,90.70
2018-03-31T21:33:14.347Z,90.70
2018-03-31T21:35:42.620Z,90.90
2018-03-31T21:38:09.908Z,91.10
2018-03-31T21:40:37.552Z,90.60
2018-03-31T21:43:04.947Z,90.60
2018-03-31T21:45:32.209Z,90.30
2018-03-31T21:47:59.546Z,89.40
2018-03-31T21:50:27.069Z,90.10
2018-03-31T21:52:55.107Z,90.00
2018-03-31T21:55:22.488Z,90.00
2018-03-31T21:57:49.836Z,89.50
2018-03-31T22:00:20.136Z,88.70
2018-03-31T22:02:47.468Z,89.30
2018-03-31T22:05:14.746Z,89.30
2018-03-31T22:07:42.229Z,88.70
2018-03-31T22:10:09.572Z,89.50
2018-03-31T22:12:36.886Z,89.20
2018-03-31T22:15:09.727Z,88.60
2018-03-31T22:17:37.167Z,89.10
2018-03-31T22:20:04.487Z,88.80
2018-03-31T22:22:31.886Z,89.30
2018-03-31T22:24:59.268Z,90.10
2018-03-31T22:27:26.807Z,90.20
2018-03-31T22:29:54.107Z,90.20
2018-03-31T22:32:21.527Z,90.20
2018-03-31T22:34:49.274Z,90.20
2018-03-31T22:37:16.530Z,90.40
2018-03-31T22:39:43.968Z,90.30
2018-03-31T22:42:11.326Z,90.50
2018-03-31T22:44:39.666Z,90.70
2018-03-31T22:47:07.126Z,90.70
2018-03-31T22:49:34.486Z,90.60
2018-03-31T22:52:01.889Z,90.60
2018-03-31T22:54:29.186Z,90.50
2018-03-31T22:56:56.486Z,90.10
2018-03-31T22:59:24.367Z,90.20
2018-03-31T23:01:51.796Z,90.40
2018-03-31T23:04:19.086Z,90.50
2018-03-31T23:06:46.367Z,90.70
2018-03-31T23:09:13.628Z,90.60
2018-03-31T23:11:41.086Z,90.80
2018-03-31T23:14:08.406Z,90.90
2018-03-31T23:16:35.787Z,90.70
2018-03-31T23:19:03.128Z,90.30
2018-03-31T23:21:30.706Z,90.50
2018-03-31T23:23:59.566Z,90.40
2018-03-31T23:26:26.946Z,90.30
2018-03-31T23:28:55.006Z,90.50
2018-03-31T23:31:22.426Z,90.50
2018-03-31T23:33:49.827Z,90.40
2018-03-31T23:36:17.226Z,90.60
2018-03-31T23:38:44.567Z,90.40
2018-03-31T23:41:11.847Z,90.00
2018-03-31T23:43:39.127Z,90.10
2018-03-31T23:46:06.386Z,90.30
2018-03-31T23:48:33.627Z,90.30
2018-03-31T23:51:01.754Z,90.30
2018-03-31T23:53:29.006Z,90.30
2018-03-31T23:55:56.446Z,90.20
2018-03-31T23:58:23.867Z,90.10
